Time;durP1;ratioP1;P1;durP2;ratioP2;P2;SDS_P1;SDS_P2;PMS_P1;PMS_P2;Temp;Humidity;BMP_temperature;BMP_pressure;BME280_temperature;BME280_humidity;BME280_pressure;Samples;Min_cycle;Max_cycle;Signal;HPM_P1;HPM_P2
2022/06/29 00:01:52;;;;;;;3.67;3.33;;;;;;;;;;4927832;29;20855;-79
2022/06/29 00:04:18;;;;;;;2.30;1.70;;;;;;;;;;4927368;29;20436;-80
2022/06/29 00:06:45;;;;;;;2.10;2.00;;;;;;;;;;4928073;29;20436;-77
2022/06/29 00:09:11;;;;;;;1.87;1.87;;;;;;;;;;4927548;29;20431;-78
2022/06/29 00:11:38;;;;;;;4.27;2.23;;;;;;;;;;4930309;29;20494;-77
2022/06/29 00:14:04;;;;;;;6.03;1.90;;;;;;;;;;4931782;29;20427;-78
2022/06/29 00:16:30;;;;;;;4.00;1.87;;;;;;;;;;4930411;29;20439;-77
2022/06/29 00:18:56;;;;;;;2.63;2.53;;;;;;;;;;4927579;29;20431;-78
2022/06/29 00:21:22;;;;;;;1.80;1.80;;;;;;;;;;4930245;29;20978;-76
2022/06/29 00:23:48;;;;;;;1.77;1.77;;;;;;;;;;4930296;29;20514;-79
2022/06/29 00:26:14;;;;;;;2.23;2.13;;;;;;;;;;4928798;29;20447;-79
2022/06/29 00:28:40;;;;;;;1.93;1.93;;;;;;;;;;4929024;29;20439;-80
2022/06/29 00:31:06;;;;;;;2.03;2.03;;;;;;;;;;4928478;29;20483;-80
2022/06/29 00:33:32;;;;;;;3.33;1.97;;;;;;;;;;4930893;29;20447;-79
2022/06/29 00:35:58;;;;;;;2.00;1.90;;;;;;;;;;4933099;29;20578;-80
2022/06/29 00:38:24;;;;;;;2.37;2.27;;;;;;;;;;4932552;29;20498;-79
2022/06/29 00:40:50;;;;;;;1.80;1.70;;;;;;;;;;4930501;29;20482;-79
2022/06/29 00:43:16;;;;;;;4.03;1.63;;;;;;;;;;4934666;29;20947;-80
2022/06/29 00:45:42;;;;;;;2.00;2.00;;;;;;;;;;4933602;29;20903;-79
2022/06/29 00:48:08;;;;;;;5.17;2.23;;;;;;;;;;4928417;29;20451;-80
2022/06/29 00:50:35;;;;;;;2.00;1.90;;;;;;;;;;4931855;29;20471;-76
2022/06/29 00:53:03;;;;;;;4.30;1.47;;;;;;;;;;4930433;29;20432;-80
2022/06/29 00:55:30;;;;;;;2.57;2.37;;;;;;;;;;4932238;29;20431;-80
2022/06/29 00:57:58;;;;;;;1.80;1.70;;;;;;;;;;4930344;29;20458;-79
2022/06/29 01:00:24;;;;;;;2.20;2.10;;;;;;;;;;4933367;29;20439;-80
2022/06/29 01:02:50;;;;;;;7.63;1.87;;;;;;;;;;4931928;29;20447;-77
2022/06/29 01:05:16;;;;;;;2.20;2.10;;;;;;;;;;4934633;29;20912;-79
2022/06/29 01:07:42;;;;;;;1.73;1.73;;;;;;;;;;4930502;29;20450;-77
2022/06/29 01:10:08;;;;;;;2.83;1.80;;;;;;;;;;4931533;29;20537;-76
2022/06/29 01:12:34;;;;;;;2.27;2.20;;;;;;;;;;4933567;29;20444;-77
2022/06/29 01:15:00;;;;;;;8.70;2.13;;;;;;;;;;4933100;29;20480;-78
2022/06/29 01:17:26;;;;;;;2.10;2.00;;;;;;;;;;4930343;29;20432;-79
2022/06/29 01:19:52;;;;;;;2.57;2.33;;;;;;;;;;4933870;29;20479;-79
2022/06/29 01:22:20;;;;;;;2.23;2.03;;;;;;;;;;4930863;29;20542;-80
2022/06/29 01:24:48;;;;;;;2.00;1.90;;;;;;;;;;4931977;29;20846;-80
2022/06/29 01:27:15;;;;;;;1.97;1.97;;;;;;;;;;4931893;29;20820;-80
2022/06/29 01:29:41;;;;;;;1.87;1.87;;;;;;;;;;4934220;29;20428;-79
2022/06/29 01:32:07;;;;;;;3.90;2.10;;;;;;;;;;4931900;29;20488;-77
2022/06/29 01:34:34;;;;;;;1.97;1.97;;;;;;;;;;4933172;29;20452;-78
2022/06/29 01:37:00;;;;;;;1.70;1.70;;;;;;;;;;4932789;29;20526;-80
2022/06/29 01:39:27;;;;;;;1.77;1.77;;;;;;;;;;4933749;29;20432;-77
2022/06/29 01:41:53;;;;;;;2.20;2.10;;;;;;;;;;4932638;29;20431;-79
2022/06/29 01:44:19;;;;;;;2.20;2.10;;;;;;;;;;4933271;29;20576;-78
2022/06/29 01:46:45;;;;;;;2.33;2.27;;;;;;;;;;4930409;28;20911;-80
2022/06/29 01:49:11;;;;;;;4.40;1.90;;;;;;;;;;4930829;29;20444;-79
2022/06/29 01:51:37;;;;;;;2.30;2.27;;;;;;;;;;4927798;29;20511;-79
2022/06/29 01:54:03;;;;;;;2.60;2.40;;;;;;;;;;4934002;29;20424;-80
2022/06/29 01:56:29;;;;;;;2.47;2.30;;;;;;;;;;4932096;29;20503;-78
2022/06/29 01:58:55;;;;;;;2.27;2.27;;;;;;;;;;4930660;29;20440;-80
2022/06/29 02:01:21;;;;;;;2.00;1.90;;;;;;;;;;4930842;29;20443;-78
2022/06/29 02:03:47;;;;;;;4.93;2.00;;;;;;;;;;4929856;29;20447;-79
2022/06/29 02:06:13;;;;;;;3.13;2.90;;;;;;;;;;4930543;29;20821;-76
2022/06/29 02:08:39;;;;;;;2.40;2.30;;;;;;;;;;4931991;29;20432;-76
2022/06/29 02:11:06;;;;;;;2.50;2.40;;;;;;;;;;4931608;29;20467;-77
2022/06/29 02:13:32;;;;;;;2.70;2.50;;;;;;;;;;4930320;29;20485;-80
2022/06/29 02:15:58;;;;;;;3.10;2.80;;;;;;;;;;4927475;29;20772;-79
2022/06/29 02:18:24;;;;;;;6.97;2.80;;;;;;;;;;4928709;29;20829;-78
2022/06/29 02:20:50;;;;;;;3.93;2.60;;;;;;;;;;4931307;29;20493;-80
2022/06/29 02:23:15;;;;;;;2.27;2.27;;;;;;;;;;4932827;29;20452;-80
2022/06/29 02:25:42;;;;;;;2.60;2.50;;;;;;;;;;4932528;29;20450;-79
2022/06/29 02:28:07;;;;;;;3.03;2.33;;;;;;;;;;4932240;29;20531;-78
2022/06/29 02:36:03;;;;;;;3.40;3.30;;;;;;;;;;4933266;29;20447;-80
2022/06/29 02:38:29;;;;;;;2.83;2.73;;;;;;;;;;4930605;29;20487;-80
2022/06/29 02:40:55;;;;;;;3.00;2.83;;;;;;;;;;4931003;29;20874;-79
2022/06/29 02:43:21;;;;;;;5.70;3.17;;;;;;;;;;4931806;29;20435;-76
2022/06/29 02:45:47;;;;;;;3.43;3.20;;;;;;;;;;4929482;29;20556;-79
2022/06/29 02:48:13;;;;;;;2.73;2.60;;;;;;;;;;4928580;29;20954;-79
2022/06/29 02:50:39;;;;;;;2.53;2.53;;;;;;;;;;4931730;29;20486;-79
2022/06/29 02:53:05;;;;;;;3.17;2.77;;;;;;;;;;4932849;29;20416;-78
2022/06/29 02:55:31;;;;;;;2.97;2.77;;;;;;;;;;4928956;29;20448;-80
2022/06/29 02:57:57;;;;;;;5.30;2.80;;;;;;;;;;4930632;29;20443;-77
2022/06/29 03:00:23;;;;;;;3.10;3.00;;;;;;;;;;4929058;29;20444;-77
2022/06/29 03:02:49;;;;;;;2.40;2.40;;;;;;;;;;4930870;29;20442;-79
2022/06/29 03:05:15;;;;;;;6.53;2.40;;;;;;;;;;4930090;29;20982;-78
2022/06/29 03:07:41;;;;;;;6.40;2.60;;;;;;;;;;4932180;29;20444;-79
2022/06/29 03:10:07;;;;;;;2.50;2.40;;;;;;;;;;4928225;29;20440;-80
2022/06/29 03:12:33;;;;;;;2.83;2.67;;;;;;;;;;4929154;29;20542;-79
2022/06/29 03:14:59;;;;;;;3.73;3.43;;;;;;;;;;4929314;29;20435;-80
2022/06/29 03:17:25;;;;;;;3.47;3.33;;;;;;;;;;4930175;29;20427;-80
2022/06/29 03:19:51;;;;;;;2.50;2.40;;;;;;;;;;4923943;29;20442;-80
2022/06/29 03:22:17;;;;;;;2.30;2.10;;;;;;;;;;4929121;29;20435;-79
2022/06/29 03:24:43;;;;;;;2.33;2.33;;;;;;;;;;4931901;29;20845;-80
2022/06/29 03:27:09;;;;;;;5.40;2.73;;;;;;;;;;4931659;29;20444;-79
2022/06/29 03:29:35;;;;;;;2.77;2.43;;;;;;;;;;4931022;29;20492;-80
2022/06/29 03:32:01;;;;;;;6.20;3.10;;;;;;;;;;4926279;29;20235;-79
2022/06/29 03:34:27;;;;;;;2.73;2.53;;;;;;;;;;4929823;29;20439;-79
2022/06/29 03:36:53;;;;;;;2.73;2.73;;;;;;;;;;4930135;29;21071;-78
2022/06/29 03:39:19;;;;;;;2.63;2.53;;;;;;;;;;4930940;29;20428;-78
2022/06/29 03:41:45;;;;;;;2.37;2.37;;;;;;;;;;4925325;29;20494;-79
2022/06/29 03:44:11;;;;;;;3.70;2.33;;;;;;;;;;4926326;29;20444;-77
2022/06/29 03:46:37;;;;;;;3.10;2.90;;;;;;;;;;4928361;29;20932;-78
2022/06/29 03:49:03;;;;;;;3.80;3.50;;;;;;;;;;4928935;29;20530;-77
2022/06/29 03:51:29;;;;;;;4.40;3.90;;;;;;;;;;4926881;29;21003;-79
2022/06/29 03:53:55;;;;;;;3.50;3.20;;;;;;;;;;4929002;29;20438;-78
2022/06/29 03:56:21;;;;;;;3.10;2.87;;;;;;;;;;4928308;29;21003;-80
2022/06/29 03:58:47;;;;;;;3.57;3.33;;;;;;;;;;4928590;29;20439;-79
2022/06/29 04:01:14;;;;;;;2.70;2.50;;;;;;;;;;4927102;29;20960;-80
2022/06/29 04:03:40;;;;;;;2.80;2.70;;;;;;;;;;4922845;29;20498;-80
2022/06/29 04:06:06;;;;;;;3.07;2.97;;;;;;;;;;4929882;29;20940;-80
2022/06/29 04:08:33;;;;;;;2.93;2.73;;;;;;;;;;4927207;29;20839;-80
2022/06/29 04:10:59;;;;;;;3.23;2.80;;;;;;;;;;4930428;29;20468;-81
2022/06/29 04:13:25;;;;;;;3.30;2.93;;;;;;;;;;4932923;29;20471;-79
2022/06/29 04:15:51;;;;;;;4.13;2.43;;;;;;;;;;4934731;29;20455;-80
2022/06/29 04:18:17;;;;;;;3.33;3.10;;;;;;;;;;4928304;29;20499;-77
2022/06/29 04:23:27;;;;;;;2.47;2.37;;;;;;;;;;4932627;29;20943;-79
2022/06/29 04:25:53;;;;;;;6.37;3.00;;;;;;;;;;4933789;29;20424;-80
2022/06/29 04:28:19;;;;;;;3.03;2.43;;;;;;;;;;4931523;29;20923;-79
2022/06/29 04:30:45;;;;;;;3.60;3.03;;;;;;;;;;4930764;29;20528;-76
2022/06/29 04:33:11;;;;;;;8.13;3.90;;;;;;;;;;4932218;29;20874;-79
2022/06/29 04:35:37;;;;;;;5.30;3.20;;;;;;;;;;4931969;29;20519;-79
2022/06/29 04:38:03;;;;;;;5.03;2.40;;;;;;;;;;4917559;29;20515;-78
2022/06/29 04:40:29;;;;;;;5.10;3.13;;;;;;;;;;4927360;29;20820;-76
2022/06/29 04:42:55;;;;;;;2.77;2.73;;;;;;;;;;4933050;29;20915;-78
2022/06/29 04:48:06;;;;;;;5.73;2.90;;;;;;;;;;4934055;29;20458;-80
2022/06/29 04:50:32;;;;;;;2.83;2.63;;;;;;;;;;4933634;29;21045;-79
2022/06/29 04:52:58;;;;;;;2.83;2.73;;;;;;;;;;4931246;29;20520;-80
2022/06/29 04:55:25;;;;;;;2.40;2.30;;;;;;;;;;4933437;29;20480;-79
2022/06/29 04:57:51;;;;;;;7.27;3.67;;;;;;;;;;4930063;29;20435;-78
2022/06/29 05:00:18;;;;;;;3.43;3.20;;;;;;;;;;4928813;29;20932;-78
2022/06/29 05:02:43;;;;;;;6.43;4.80;;;;;;;;;;4932741;29;20538;-78
2022/06/29 05:05:10;;;;;;;2.90;2.90;;;;;;;;;;4934831;29;20514;-78
2022/06/29 05:07:36;;;;;;;2.50;2.40;;;;;;;;;;4932530;29;20479;-79
2022/06/29 05:10:03;;;;;;;2.73;2.63;;;;;;;;;;4933348;29;20451;-77
2022/06/29 05:12:29;;;;;;;2.60;2.60;;;;;;;;;;4915991;29;20542;-79
2022/06/29 05:14:55;;;;;;;4.50;4.10;;;;;;;;;;4930467;29;20449;-77
2022/06/29 05:17:20;;;;;;;3.27;3.03;;;;;;;;;;4931810;29;20876;-79
2022/06/29 05:19:46;;;;;;;2.50;2.40;;;;;;;;;;4931738;29;20551;-79
2022/06/29 05:22:12;;;;;;;2.93;2.37;;;;;;;;;;4928349;29;20452;-78
2022/06/29 05:24:38;;;;;;;2.97;2.87;;;;;;;;;;4932342;29;20471;-77
2022/06/29 05:27:05;;;;;;;2.57;2.43;;;;;;;;;;4932298;29;20440;-77
2022/06/29 05:29:31;;;;;;;4.57;2.70;;;;;;;;;;4930169;29;20465;-76
2022/06/29 05:31:57;;;;;;;3.10;2.90;;;;;;;;;;4928764;29;20919;-77
2022/06/29 05:34:23;;;;;;;3.40;3.20;;;;;;;;;;4928433;29;20464;-78
2022/06/29 05:36:49;;;;;;;4.47;3.73;;;;;;;;;;4929243;29;20574;-79
2022/06/29 05:39:15;;;;;;;4.03;3.70;;;;;;;;;;4933191;29;20436;-78
2022/06/29 05:41:41;;;;;;;3.50;3.23;;;;;;;;;;4931533;29;20439;-77
2022/06/29 05:44:07;;;;;;;3.00;2.97;;;;;;;;;;4932843;29;20432;-78
2022/06/29 05:46:33;;;;;;;4.40;3.70;;;;;;;;;;4934177;29;20435;-78
2022/06/29 05:48:59;;;;;;;7.03;3.30;;;;;;;;;;4928573;29;20436;-79
2022/06/29 05:51:25;;;;;;;25.97;8.43;;;;;;;;;;4933505;29;20499;-77
2022/06/29 05:53:51;;;;;;;3.37;3.07;;;;;;;;;;4928663;29;20446;-75
2022/06/29 05:56:18;;;;;;;2.83;2.73;;;;;;;;;;4927408;29;20495;-77
2022/06/29 05:58:43;;;;;;;6.43;3.80;;;;;;;;;;4915280;29;20440;-78
2022/06/29 06:01:10;;;;;;;2.97;2.50;;;;;;;;;;4930098;29;20820;-78
2022/06/29 06:03:36;;;;;;;2.80;2.60;;;;;;;;;;4933454;29;20435;-79
2022/06/29 06:06:02;;;;;;;8.03;2.80;;;;;;;;;;4932547;29;20908;-77
2022/06/29 06:08:28;;;;;;;4.77;2.70;;;;;;;;;;4930838;29;20530;-78
2022/06/29 06:10:54;;;;;;;3.37;3.27;;;;;;;;;;4929338;29;20562;-78
2022/06/29 06:13:21;;;;;;;3.00;2.83;;;;;;;;;;4930944;29;20458;-78
2022/06/29 06:15:47;;;;;;;7.17;3.73;;;;;;;;;;4929622;29;20944;-77
2022/06/29 06:18:13;;;;;;;2.40;2.30;;;;;;;;;;4929763;29;20434;-78
2022/06/29 06:20:39;;;;;;;2.67;2.67;;;;;;;;;;4930884;29;20572;-76
2022/06/29 06:23:06;;;;;;;3.37;3.20;;;;;;;;;;4932511;29;20544;-75
2022/06/29 06:25:32;;;;;;;8.13;2.60;;;;;;;;;;4927203;29;20450;-78
2022/06/29 06:27:58;;;;;;;2.90;2.80;;;;;;;;;;4925566;29;20489;-79
2022/06/29 06:30:24;;;;;;;3.90;2.80;;;;;;;;;;4930584;29;20515;-80
2022/06/29 06:32:50;;;;;;;3.00;2.80;;;;;;;;;;4921279;29;20452;-79
2022/06/29 06:35:19;;;;;;;8.57;3.17;;;;;;;;;;4925194;29;20503;-79
2022/06/29 06:37:45;;;;;;;2.67;2.60;;;;;;;;;;4931161;29;20483;-77
2022/06/29 06:42:55;;;;;;;2.87;2.77;;;;;;;;;;4928974;29;20446;-77
2022/06/29 06:45:21;;;;;;;2.83;2.63;;;;;;;;;;4924526;29;20436;-75
2022/06/29 06:47:47;;;;;;;3.27;3.03;;;;;;;;;;4926405;29;20431;-78
2022/06/29 06:50:13;;;;;;;4.57;2.50;;;;;;;;;;4923412;29;20450;-78
2022/06/29 06:52:39;;;;;;;9.50;3.43;;;;;;;;;;4928109;29;20495;-77
2022/06/29 06:55:06;;;;;;;3.73;3.53;;;;;;;;;;4928136;29;20432;-77
2022/06/29 06:57:31;;;;;;;2.60;2.50;;;;;;;;;;4928635;29;20479;-78
2022/06/29 06:59:57;;;;;;;2.70;2.60;;;;;;;;;;4929152;29;20534;-78
2022/06/29 07:02:23;;;;;;;2.20;2.20;;;;;;;;;;4930057;29;20439;-76
2022/06/29 07:04:49;;;;;;;3.30;3.07;;;;;;;;;;4924479;29;20446;-77
2022/06/29 07:07:15;;;;;;;2.77;2.67;;;;;;;;;;4927517;29;20449;-77
2022/06/29 07:09:41;;;;;;;13.80;2.83;;;;;;;;;;4928027;29;20495;-75
2022/06/29 07:12:07;;;;;;;2.83;2.63;;;;;;;;;;4927915;29;20487;-75
2022/06/29 07:14:33;;;;;;;2.80;2.70;;;;;;;;;;4926095;29;20853;-75
2022/06/29 07:16:59;;;;;;;6.10;2.50;;;;;;;;;;4929652;29;20432;-74
2022/06/29 07:19:25;;;;;;;2.60;2.40;;;;;;;;;;4930511;29;20975;-77
2022/06/29 07:21:51;;;;;;;3.00;2.80;;;;;;;;;;4927442;29;20498;-76
2022/06/29 07:24:17;;;;;;;6.00;3.97;;;;;;;;;;4924340;29;20440;-75
2022/06/29 07:26:43;;;;;;;3.53;3.37;;;;;;;;;;4924495;29;20200;-77
2022/06/29 07:29:09;;;;;;;3.47;3.47;;;;;;;;;;4929201;29;20475;-76
2022/06/29 07:31:35;;;;;;;3.87;2.87;;;;;;;;;;4924037;29;20559;-78
2022/06/29 07:34:01;;;;;;;2.93;2.83;;;;;;;;;;4930738;29;20522;-76
2022/06/29 07:36:29;;;;;;;2.50;2.40;;;;;;;;;;4931447;29;20435;-77
2022/06/29 07:38:55;;;;;;;2.90;2.80;;;;;;;;;;4931212;29;20451;-76
2022/06/29 07:41:21;;;;;;;2.80;2.60;;;;;;;;;;4924171;29;20498;-76
2022/06/29 07:43:47;;;;;;;1.40;1.40;;;;;;;;;;4926083;29;20559;-78
2022/06/29 07:46:13;;;;;;;2.40;2.40;;;;;;;;;;4928767;29;20519;-77
2022/06/29 07:48:39;;;;;;;2.10;2.00;;;;;;;;;;4933288;29;20950;-78
2022/06/29 07:51:05;;;;;;;3.07;1.97;;;;;;;;;;4935731;29;20475;-79
2022/06/29 07:53:31;;;;;;;2.63;2.63;;;;;;;;;;4933312;29;20442;-78
2022/06/29 07:55:57;;;;;;;2.17;2.10;;;;;;;;;;4917729;29;20447;-77
2022/06/29 07:58:23;;;;;;;2.73;2.13;;;;;;;;;;4932492;29;20936;-78
2022/06/29 08:00:49;;;;;;;2.30;2.10;;;;;;;;;;4928747;29;20923;-78
2022/06/29 08:03:15;;;;;;;2.10;2.00;;;;;;;;;;4918547;29;20987;-77
2022/06/29 08:05:42;;;;;;;2.20;2.20;;;;;;;;;;4930552;29;20739;-76
2022/06/29 08:08:08;;;;;;;2.70;2.60;;;;;;;;;;4931304;29;20443;-76
2022/06/29 08:10:34;;;;;;;2.60;2.43;;;;;;;;;;4924677;29;20480;-76
2022/06/29 08:13:01;;;;;;;2.23;2.13;;;;;;;;;;4931988;29;20451;-76
2022/06/29 08:15:27;;;;;;;4.00;2.17;;;;;;;;;;4929078;29;20458;-78
2022/06/29 08:17:53;;;;;;;3.07;2.80;;;;;;;;;;4925338;29;20852;-77
2022/06/29 08:20:20;;;;;;;2.30;2.20;;;;;;;;;;4930940;29;20424;-78
2022/06/29 08:22:46;;;;;;;3.10;3.00;;;;;;;;;;4930909;29;20443;-80
2022/06/29 08:25:12;;;;;;;2.50;2.17;;;;;;;;;;4928888;29;20486;-76
2022/06/29 08:27:39;;;;;;;3.60;2.27;;;;;;;;;;4933767;29;20815;-77
2022/06/29 08:30:05;;;;;;;3.47;2.37;;;;;;;;;;4934186;29;20791;-76
2022/06/29 08:32:31;;;;;;;2.50;2.30;;;;;;;;;;4930894;29;20498;-78
2022/06/29 08:35:01;;;;;;;2.77;2.50;;;;;;;;;;4929236;29;21342;-79
2022/06/29 08:37:27;;;;;;;2.03;2.00;;;;;;;;;;4931489;29;20483;-77
2022/06/29 08:39:54;;;;;;;2.07;2.03;;;;;;;;;;4926345;29;20464;-81
2022/06/29 08:42:24;;;;;;;3.40;3.10;;;;;;;;;;4931547;29;20439;-75
2022/06/29 08:44:50;;;;;;;2.33;2.10;;;;;;;;;;4933909;29;20478;-76
2022/06/29 08:47:17;;;;;;;1.73;1.73;;;;;;;;;;4931725;29;20958;-76
2022/06/29 08:49:44;;;;;;;2.20;2.13;;;;;;;;;;4932077;29;21837;-76
2022/06/29 08:52:10;;;;;;;2.03;2.03;;;;;;;;;;4927085;29;20479;-76
2022/06/29 08:54:37;;;;;;;2.83;1.83;;;;;;;;;;4933759;29;20539;-76
2022/06/29 08:57:04;;;;;;;1.50;1.50;;;;;;;;;;4933365;29;20788;-77
2022/06/29 08:59:30;;;;;;;1.63;1.63;;;;;;;;;;4929874;29;20440;-75
2022/06/29 09:01:56;;;;;;;1.70;1.70;;;;;;;;;;4929477;29;20927;-76
2022/06/29 09:04:22;;;;;;;2.97;1.50;;;;;;;;;;4929947;29;20472;-75
2022/06/29 09:06:52;;;;;;;1.20;1.20;;;;;;;;;;4930990;29;20981;-75
2022/06/29 09:09:18;;;;;;;2.07;1.97;;;;;;;;;;4933441;29;20446;-75
2022/06/29 09:11:46;;;;;;;1.33;1.33;;;;;;;;;;4933142;29;20829;-75
2022/06/29 09:14:16;;;;;;;1.50;1.50;;;;;;;;;;4932172;29;20431;-76
2022/06/29 09:17:01;;;;;;;1.43;1.43;;;;;;;;;;4931737;29;20458;-76
2022/06/29 09:19:28;;;;;;;3.50;1.77;;;;;;;;;;4929194;29;20518;-77
2022/06/29 09:21:55;;;;;;;1.60;1.60;;;;;;;;;;4930148;29;20964;-75
2022/06/29 09:24:23;;;;;;;8.77;1.83;;;;;;;;;;4923666;29;20464;-76
2022/06/29 09:26:50;;;;;;;2.63;2.03;;;;;;;;;;4933862;29;20432;-76
2022/06/29 09:29:20;;;;;;;1.50;1.50;;;;;;;;;;4931877;29;21037;-75
2022/06/29 09:32:07;;;;;;;4.90;1.87;;;;;;;;;;4930460;29;20491;-76
2022/06/29 09:34:33;;;;;;;8.20;2.30;;;;;;;;;;4921790;29;20427;-76
2022/06/29 09:37:00;;;;;;;1.70;1.70;;;;;;;;;;4928888;29;20979;-76
2022/06/29 09:39:33;;;;;;;2.20;2.00;;;;;;;;;;4931242;29;20447;-76
2022/06/29 09:41:59;;;;;;;1.57;1.57;;;;;;;;;;4932504;29;20538;-77
2022/06/29 09:44:25;;;;;;;2.53;2.00;;;;;;;;;;4923754;29;20633;-76
2022/06/29 09:46:54;;;;;;;2.60;2.03;;;;;;;;;;4930754;29;20452;-76
2022/06/29 09:49:24;;;;;;;2.00;1.90;;;;;;;;;;4925869;29;20431;-76
2022/06/29 09:51:51;;;;;;;1.50;1.50;;;;;;;;;;4925612;29;20805;-76
2022/06/29 09:54:19;;;;;;;1.43;1.43;;;;;;;;;;4930020;29;20506;-75
2022/06/29 09:56:48;;;;;;;2.10;2.00;;;;;;;;;;4929581;29;20448;-76
2022/06/29 09:59:19;;;;;;;2.30;2.03;;;;;;;;;;4930156;29;20962;-77
2022/06/29 10:04:29;;;;;;;1.70;1.70;;;;;;;;;;4931796;29;20471;-75
2022/06/29 10:06:55;;;;;;;2.40;2.20;;;;;;;;;;4931612;29;20950;-76
2022/06/29 10:09:22;;;;;;;2.30;2.00;;;;;;;;;;4930978;29;20444;-77
2022/06/29 10:14:42;;;;;;;1.80;1.80;;;;;;;;;;4928255;29;20974;-75
2022/06/29 10:17:29;;;;;;;3.37;2.00;;;;;;;;;;4929176;29;20494;-76
2022/06/29 10:20:09;;;;;;;2.93;1.53;;;;;;;;;;4930973;29;20937;-77
2022/06/29 10:22:35;;;;;;;2.60;2.03;;;;;;;;;;4926530;29;20437;-76
2022/06/29 10:25:06;;;;;;;2.13;1.63;;;;;;;;;;4926746;29;20439;-77
2022/06/29 10:27:32;;;;;;;1.60;1.50;;;;;;;;;;4928687;29;20440;-77
2022/06/29 10:30:17;;;;;;;1.40;1.40;;;;;;;;;;4930522;29;20436;-76
2022/06/29 10:32:43;;;;;;;1.70;1.60;;;;;;;;;;4926170;29;20972;-76
2022/06/29 10:35:09;;;;;;;2.57;2.47;;;;;;;;;;4930619;29;20438;-77
2022/06/29 10:37:46;;;;;;;1.87;1.67;;;;;;;;;;4928608;29;20266;-76
2022/06/29 10:40:17;;;;;;;2.00;2.00;;;;;;;;;;4927745;29;20824;-76
2022/06/29 10:45:33;;;;;;;7.53;2.23;;;;;;;;;;4928553;29;20423;-76
2022/06/29 10:48:01;;;;;;;1.53;1.53;;;;;;;;;;4922703;29;20440;-76
2022/06/29 10:50:28;;;;;;;2.10;1.93;;;;;;;;;;4926140;29;20440;-76
2022/06/29 10:52:55;;;;;;;1.53;1.43;;;;;;;;;;4922659;29;20538;-76
2022/06/29 10:55:22;;;;;;;1.67;1.67;;;;;;;;;;4926645;29;20439;-76
2022/06/29 10:57:49;;;;;;;1.90;1.90;;;;;;;;;;4925576;29;20515;-77
2022/06/29 11:00:16;;;;;;;2.93;1.40;;;;;;;;;;4928215;29;20436;-76
2022/06/29 11:02:43;;;;;;;3.30;1.93;;;;;;;;;;4928847;29;20515;-76
2022/06/29 11:05:09;;;;;;;1.90;1.80;;;;;;;;;;4929359;29;20443;-75
2022/06/29 11:13:05;;;;;;;4.83;1.77;;;;;;;;;;4931804;29;20455;-75
2022/06/29 11:15:48;;;;;;;2.23;2.07;;;;;;;;;;4929724;29;20473;-76
2022/06/29 11:18:15;;;;;;;1.23;1.23;;;;;;;;;;4924563;29;20191;-76
2022/06/29 11:20:41;;;;;;;2.00;2.00;;;;;;;;;;4924290;29;20463;-76
2022/06/29 11:23:12;;;;;;;1.50;1.50;;;;;;;;;;4930230;29;20839;-76
2022/06/29 11:25:39;;;;;;;1.77;1.77;;;;;;;;;;4930244;29;20865;-76
2022/06/29 11:28:05;;;;;;;1.60;1.60;;;;;;;;;;4926706;29;20438;-76
2022/06/29 11:30:31;;;;;;;6.33;1.60;;;;;;;;;;4926651;29;20440;-76
2022/06/29 11:32:57;;;;;;;2.23;2.03;;;;;;;;;;4932180;29;20435;-76
2022/06/29 11:35:24;;;;;;;2.20;2.00;;;;;;;;;;4932260;29;20427;-76
2022/06/29 11:37:54;;;;;;;2.17;1.97;;;;;;;;;;4932071;29;20827;-76
2022/06/29 11:40:21;;;;;;;1.90;1.60;;;;;;;;;;4928892;29;20444;-76
2022/06/29 11:45:49;;;;;;;5.90;1.67;;;;;;;;;;4919957;29;20822;-76
2022/06/29 11:48:19;;;;;;;2.20;2.10;;;;;;;;;;4931168;29;20435;-76
2022/06/29 11:50:46;;;;;;;2.30;2.20;;;;;;;;;;4929495;29;20435;-77
2022/06/29 11:53:13;;;;;;;2.20;2.10;;;;;;;;;;4932500;29;20516;-76
2022/06/29 11:55:43;;;;;;;2.90;2.20;;;;;;;;;;4932131;29;20877;-76
2022/06/29 11:58:10;;;;;;;2.60;2.50;;;;;;;;;;4929708;29;20432;-76
2022/06/29 12:00:39;;;;;;;2.00;2.00;;;;;;;;;;4929775;29;20475;-76
2022/06/29 12:03:06;;;;;;;2.17;2.17;;;;;;;;;;4932235;29;20424;-76
2022/06/29 12:05:33;;;;;;;2.40;2.30;;;;;;;;;;4930975;29;20447;-76
2022/06/29 12:07:59;;;;;;;5.33;2.47;;;;;;;;;;4932366;29;20900;-77
2022/06/29 12:10:25;;;;;;;3.20;1.93;;;;;;;;;;4931815;29;20431;-76
2022/06/29 12:12:51;;;;;;;1.90;1.90;;;;;;;;;;4931151;29;21058;-76
2022/06/29 12:15:17;;;;;;;2.03;2.03;;;;;;;;;;4931042;29;20439;-76
2022/06/29 12:17:43;;;;;;;2.70;1.90;;;;;;;;;;4930460;29;20447;-76
2022/06/29 12:20:09;;;;;;;2.40;2.20;;;;;;;;;;4924372;29;20504;-76
2022/06/29 12:22:35;;;;;;;2.40;2.20;;;;;;;;;;4930716;29;20503;-78
2022/06/29 12:25:01;;;;;;;2.97;1.90;;;;;;;;;;4928765;29;20828;-76
2022/06/29 12:27:27;;;;;;;1.67;1.53;;;;;;;;;;4930925;29;20447;-76
2022/06/29 12:29:53;;;;;;;1.50;1.50;;;;;;;;;;4930809;29;20444;-76
2022/06/29 12:32:19;;;;;;;2.67;2.50;;;;;;;;;;4934091;29;20502;-76
2022/06/29 12:34:45;;;;;;;1.70;1.60;;;;;;;;;;4931407;29;20435;-76
2022/06/29 12:37:11;;;;;;;1.70;1.70;;;;;;;;;;4934614;29;20608;-76
2022/06/29 12:39:37;;;;;;;2.50;1.20;;;;;;;;;;4935280;29;20823;-76
2022/06/29 12:42:03;;;;;;;4.70;2.27;;;;;;;;;;4932361;29;20504;-76
2022/06/29 12:44:29;;;;;;;2.17;2.10;;;;;;;;;;4934483;29;20439;-76
2022/06/29 12:46:55;;;;;;;1.93;1.83;;;;;;;;;;4932470;29;20530;-75
2022/06/29 12:49:22;;;;;;;2.27;1.57;;;;;;;;;;4935300;29;20541;-76
2022/06/29 12:51:48;;;;;;;2.30;2.07;;;;;;;;;;4929570;29;20947;-76
2022/06/29 12:54:14;;;;;;;2.67;1.60;;;;;;;;;;4933310;29;20432;-76
2022/06/29 12:56:40;;;;;;;1.53;1.43;;;;;;;;;;4932436;29;20519;-76
2022/06/29 12:59:06;;;;;;;1.83;1.83;;;;;;;;;;4931250;29;20539;-76
2022/06/29 13:01:32;;;;;;;1.90;1.90;;;;;;;;;;4934586;29;20447;-76
2022/06/29 13:03:58;;;;;;;2.20;1.60;;;;;;;;;;4927442;29;20808;-76
2022/06/29 13:06:24;;;;;;;5.13;1.40;;;;;;;;;;4935078;29;20439;-76
2022/06/29 13:08:50;;;;;;;1.50;1.50;;;;;;;;;;4931780;29;20522;-76
2022/06/29 13:11:16;;;;;;;2.10;2.00;;;;;;;;;;4934571;29;20243;-76
2022/06/29 13:13:42;;;;;;;7.80;3.37;;;;;;;;;;4934512;29;20478;-76
2022/06/29 13:16:08;;;;;;;1.67;1.57;;;;;;;;;;4934349;29;20419;-76
2022/06/29 13:18:36;;;;;;;1.60;1.60;;;;;;;;;;4934763;29;20897;-76
2022/06/29 13:21:02;;;;;;;2.17;1.83;;;;;;;;;;4929976;29;20432;-76
2022/06/29 13:23:28;;;;;;;7.80;1.70;;;;;;;;;;4933455;29;20435;-77
2022/06/29 13:25:54;;;;;;;3.23;1.70;;;;;;;;;;4934505;29;20495;-76
2022/06/29 13:28:20;;;;;;;1.63;1.63;;;;;;;;;;4934037;29;20790;-76
2022/06/29 13:30:46;;;;;;;0.90;0.90;;;;;;;;;;4933012;29;20439;-76
2022/06/29 13:33:12;;;;;;;1.60;1.60;;;;;;;;;;4934573;29;20519;-76
2022/06/29 13:35:38;;;;;;;2.00;1.90;;;;;;;;;;4931727;29;20448;-76
2022/06/29 13:38:05;;;;;;;2.73;2.00;;;;;;;;;;4934355;29;20555;-76
2022/06/29 13:40:31;;;;;;;2.33;2.20;;;;;;;;;;4932032;29;20922;-77
2022/06/29 13:42:58;;;;;;;1.80;1.80;;;;;;;;;;4927168;29;20940;-76
2022/06/29 13:45:24;;;;;;;1.80;1.70;;;;;;;;;;4932984;29;20479;-76
2022/06/29 13:47:50;;;;;;;1.40;1.30;;;;;;;;;;4931467;29;20424;-77
2022/06/29 13:50:16;;;;;;;5.50;2.13;;;;;;;;;;4929691;29;20908;-76
2022/06/29 13:52:42;;;;;;;1.50;1.50;;;;;;;;;;4933573;29;20496;-76
2022/06/29 13:55:08;;;;;;;7.13;1.70;;;;;;;;;;4933203;29;20439;-76
2022/06/29 13:57:34;;;;;;;1.80;1.80;;;;;;;;;;4933532;29;20439;-76
2022/06/29 13:59:59;;;;;;;2.47;1.40;;;;;;;;;;4932326;29;20443;-76
2022/06/29 14:02:25;;;;;;;4.90;2.20;;;;;;;;;;4932459;29;20445;-76
2022/06/29 14:04:51;;;;;;;2.03;1.57;;;;;;;;;;4932226;29;20494;-76
2022/06/29 14:07:18;;;;;;;4.20;2.10;;;;;;;;;;4932491;29;20537;-76
2022/06/29 14:09:44;;;;;;;15.90;1.67;;;;;;;;;;4927249;29;20939;-76
2022/06/29 14:12:10;;;;;;;11.53;1.70;;;;;;;;;;4932785;29;20479;-76
2022/06/29 14:14:36;;;;;;;1.63;1.63;;;;;;;;;;4933568;29;20975;-75
2022/06/29 14:17:02;;;;;;;1.40;1.30;;;;;;;;;;4933598;29;20420;-76
2022/06/29 14:19:32;;;;;;;1.50;1.50;;;;;;;;;;4931287;29;20428;-76
2022/06/29 14:21:58;;;;;;;1.50;1.50;;;;;;;;;;4931022;29;20442;-76
2022/06/29 14:24:24;;;;;;;34.93;16.03;;;;;;;;;;4931773;29;20948;-76
2022/06/29 14:26:50;;;;;;;2.20;2.10;;;;;;;;;;4931468;29;20448;-76
2022/06/29 14:29:16;;;;;;;2.03;1.93;;;;;;;;;;4933170;29;20456;-76
2022/06/29 14:31:43;;;;;;;1.83;1.73;;;;;;;;;;4931799;29;21082;-77
2022/06/29 14:34:08;;;;;;;4.13;2.07;;;;;;;;;;4929468;29;20444;-76
2022/06/29 14:36:35;;;;;;;2.43;2.00;;;;;;;;;;4929800;29;20911;-76
2022/06/29 14:39:01;;;;;;;2.20;2.20;;;;;;;;;;4929613;29;20448;-76
2022/06/29 14:41:27;;;;;;;3.10;2.83;;;;;;;;;;4926973;29;20439;-76
2022/06/29 14:43:53;;;;;;;2.40;2.30;;;;;;;;;;4931611;29;20432;-76
2022/06/29 14:46:19;;;;;;;1.57;1.57;;;;;;;;;;4930570;29;20951;-76
2022/06/29 14:48:45;;;;;;;1.90;1.80;;;;;;;;;;4930279;29;20428;-76
2022/06/29 14:51:12;;;;;;;2.53;2.33;;;;;;;;;;4925577;29;20499;-76
2022/06/29 14:53:38;;;;;;;1.70;1.60;;;;;;;;;;4932299;29;20476;-76
2022/06/29 14:56:04;;;;;;;2.80;1.77;;;;;;;;;;4928979;29;20960;-76
2022/06/29 14:58:31;;;;;;;1.67;1.60;;;;;;;;;;4925947;29;20454;-76
2022/06/29 15:00:57;;;;;;;4.27;2.27;;;;;;;;;;4930402;29;20530;-76
2022/06/29 15:03:23;;;;;;;1.60;1.60;;;;;;;;;;4928440;29;20463;-76
2022/06/29 15:05:49;;;;;;;1.80;1.80;;;;;;;;;;4931539;29;20444;-76
2022/06/29 15:08:15;;;;;;;4.43;1.60;;;;;;;;;;4932636;29;20458;-76
2022/06/29 15:10:41;;;;;;;9.37;2.40;;;;;;;;;;4931410;29;20533;-76